sensor_id;sensor_type;location;lat;lon;timestamp;temperature;humidity
73322;DHT22;61549;37.044;22.128;2022-08-25T00:01:27;26.50;56.70
73322;DHT22;61549;37.044;22.128;2022-08-25T00:03:55;26.40;56.90
73322;DHT22;61549;37.044;22.128;2022-08-25T00:06:21;26.40;57.40
73322;DHT22;61549;37.044;22.128;2022-08-25T00:08:48;26.40;57.70
73322;DHT22;61549;37.044;22.128;2022-08-25T00:11:18;26.40;57.90
73322;DHT22;61549;37.044;22.128;2022-08-25T00:13:48;26.30;58.10
73322;DHT22;61549;37.044;22.128;2022-08-25T00:16:17;26.30;58.00
73322;DHT22;61549;37.044;22.128;2022-08-25T00:18:46;26.30;57.90
73322;DHT22;61549;37.044;22.128;2022-08-25T00:21:14;26.30;58.50
73322;DHT22;61549;37.044;22.128;2022-08-25T00:23:41;26.30;58.50
73322;DHT22;61549;37.044;22.128;2022-08-25T00:26:08;26.20;58.30
73322;DHT22;61549;37.044;22.128;2022-08-25T00:28:35;26.20;58.20
73322;DHT22;61549;37.044;22.128;2022-08-25T00:31:02;26.10;58.30
73322;DHT22;61549;37.044;22.128;2022-08-25T00:33:29;26.00;58.30
73322;DHT22;61549;37.044;22.128;2022-08-25T00:35:56;26.00;58.20
73322;DHT22;61549;37.044;22.128;2022-08-25T00:38:23;25.90;58.00
73322;DHT22;61549;37.044;22.128;2022-08-25T00:40:49;25.90;58.00
73322;DHT22;61549;37.044;22.128;2022-08-25T00:43:53;25.90;57.80
73322;DHT22;61549;37.044;22.128;2022-08-25T00:46:26;25.90;57.50
73322;DHT22;61549;37.044;22.128;2022-08-25T00:48:59;25.90;57.50
73322;DHT22;61549;37.044;22.128;2022-08-25T00:51:38;26.00;57.50
73322;DHT22;61549;37.044;22.128;2022-08-25T00:54:07;25.90;57.50
73322;DHT22;61549;37.044;22.128;2022-08-25T00:56:34;25.90;57.50
73322;DHT22;61549;37.044;22.128;2022-08-25T00:59:02;25.90;57.40
73322;DHT22;61549;37.044;22.128;2022-08-25T01:01:28;25.90;57.20
73322;DHT22;61549;37.044;22.128;2022-08-25T01:03:55;25.90;57.40
73322;DHT22;61549;37.044;22.128;2022-08-25T01:06:21;25.80;57.40
73322;DHT22;61549;37.044;22.128;2022-08-25T01:08:48;25.80;57.30
73322;DHT22;61549;37.044;22.128;2022-08-25T01:11:14;25.80;57.80
73322;DHT22;61549;37.044;22.128;2022-08-25T01:13:43;25.90;58.30
73322;DHT22;61549;37.044;22.128;2022-08-25T01:16:12;25.90;58.10
73322;DHT22;61549;37.044;22.128;2022-08-25T01:18:50;25.90;58.10
73322;DHT22;61549;37.044;22.128;2022-08-25T01:21:18;25.90;57.90
73322;DHT22;61549;37.044;22.128;2022-08-25T01:23:45;25.90;57.90
73322;DHT22;61549;37.044;22.128;2022-08-25T01:26:16;25.90;57.50
73322;DHT22;61549;37.044;22.128;2022-08-25T01:28:44;25.90;57.60
73322;DHT22;61549;37.044;22.128;2022-08-25T01:31:29;25.90;57.90
73322;DHT22;61549;37.044;22.128;2022-08-25T01:33:56;25.90;57.60
73322;DHT22;61549;37.044;22.128;2022-08-25T01:36:24;25.90;57.10
73322;DHT22;61549;37.044;22.128;2022-08-25T01:38:50;25.90;57.10
73322;DHT22;61549;37.044;22.128;2022-08-25T01:41:45;25.90;57.20
73322;DHT22;61549;37.044;22.128;2022-08-25T01:44:15;25.90;57.70
73322;DHT22;61549;37.044;22.128;2022-08-25T01:46:42;25.90;57.90
73322;DHT22;61549;37.044;22.128;2022-08-25T01:49:08;25.90;58.30
73322;DHT22;61549;37.044;22.128;2022-08-25T01:51:42;25.90;58.00
73322;DHT22;61549;37.044;22.128;2022-08-25T01:54:09;25.80;57.80
73322;DHT22;61549;37.044;22.128;2022-08-25T01:56:35;25.70;58.10
73322;DHT22;61549;37.044;22.128;2022-08-25T01:59:00;25.70;58.60
73322;DHT22;61549;37.044;22.128;2022-08-25T02:01:28;25.70;58.60
73322;DHT22;61549;37.044;22.128;2022-08-25T02:03:54;25.60;58.40
73322;DHT22;61549;37.044;22.128;2022-08-25T02:06:28;25.60;58.40
73322;DHT22;61549;37.044;22.128;2022-08-25T02:08:59;25.60;58.40
73322;DHT22;61549;37.044;22.128;2022-08-25T02:11:25;25.50;58.20
73322;DHT22;61549;37.044;22.128;2022-08-25T02:13:52;25.50;57.90
73322;DHT22;61549;37.044;22.128;2022-08-25T02:16:28;25.50;57.90
73322;DHT22;61549;37.044;22.128;2022-08-25T02:18:55;25.50;58.20
73322;DHT22;61549;37.044;22.128;2022-08-25T02:21:21;25.40;58.50
73322;DHT22;61549;37.044;22.128;2022-08-25T02:23:47;25.50;58.30
73322;DHT22;61549;37.044;22.128;2022-08-25T02:26:13;25.50;58.30
73322;DHT22;61549;37.044;22.128;2022-08-25T02:28:44;25.50;58.30
73322;DHT22;61549;37.044;22.128;2022-08-25T02:31:11;25.40;58.00
73322;DHT22;61549;37.044;22.128;2022-08-25T02:33:37;25.50;58.10
73322;DHT22;61549;37.044;22.128;2022-08-25T02:36:04;25.50;58.30
73322;DHT22;61549;37.044;22.128;2022-08-25T02:38:30;25.50;58.50
73322;DHT22;61549;37.044;22.128;2022-08-25T02:40:58;25.50;58.50
73322;DHT22;61549;37.044;22.128;2022-08-25T02:43:25;25.50;58.50
73322;DHT22;61549;37.044;22.128;2022-08-25T02:45:52;25.50;58.10
73322;DHT22;61549;37.044;22.128;2022-08-25T02:48:18;25.50;57.70
73322;DHT22;61549;37.044;22.128;2022-08-25T02:50:48;25.50;57.70
73322;DHT22;61549;37.044;22.128;2022-08-25T02:53:16;25.60;57.60
73322;DHT22;61549;37.044;22.128;2022-08-25T02:55:42;25.60;57.50
73322;DHT22;61549;37.044;22.128;2022-08-25T02:58:08;25.60;57.40
73322;DHT22;61549;37.044;22.128;2022-08-25T03:00:34;25.70;57.30
73322;DHT22;61549;37.044;22.128;2022-08-25T03:03:00;25.70;57.20
73322;DHT22;61549;37.044;22.128;2022-08-25T03:05:26;25.70;57.20
73322;DHT22;61549;37.044;22.128;2022-08-25T03:07:52;25.80;57.90
73322;DHT22;61549;37.044;22.128;2022-08-25T03:10:18;25.80;58.10
73322;DHT22;61549;37.044;22.128;2022-08-25T03:12:45;25.80;58.70
73322;DHT22;61549;37.044;22.128;2022-08-25T03:15:13;25.80;58.70
73322;DHT22;61549;37.044;22.128;2022-08-25T03:17:46;25.80;58.70
73322;DHT22;61549;37.044;22.128;2022-08-25T03:20:16;25.80;58.60
73322;DHT22;61549;37.044;22.128;2022-08-25T03:22:42;25.70;58.70
73322;DHT22;61549;37.044;22.128;2022-08-25T03:25:09;25.70;58.60
73322;DHT22;61549;37.044;22.128;2022-08-25T03:27:54;25.70;58.50
73322;DHT22;61549;37.044;22.128;2022-08-25T03:30:20;25.60;58.10
73322;DHT22;61549;37.044;22.128;2022-08-25T03:32:46;25.70;57.60
73322;DHT22;61549;37.044;22.128;2022-08-25T03:35:12;25.70;57.30
73322;DHT22;61549;37.044;22.128;2022-08-25T03:37:38;25.70;57.00
73322;DHT22;61549;37.044;22.128;2022-08-25T03:40:06;25.70;56.90
73322;DHT22;61549;37.044;22.128;2022-08-25T03:42:34;25.80;56.80
73322;DHT22;61549;37.044;22.128;2022-08-25T03:45:03;25.70;56.90
73322;DHT22;61549;37.044;22.128;2022-08-25T03:47:29;25.80;57.80
73322;DHT22;61549;37.044;22.128;2022-08-25T03:49:56;25.80;57.90
73322;DHT22;61549;37.044;22.128;2022-08-25T03:52:22;25.80;58.20
73322;DHT22;61549;37.044;22.128;2022-08-25T03:54:48;25.70;58.10
73322;DHT22;61549;37.044;22.128;2022-08-25T03:57:14;25.70;58.10
73322;DHT22;61549;37.044;22.128;2022-08-25T03:59:40;25.70;58.20
73322;DHT22;61549;37.044;22.128;2022-08-25T04:02:07;25.70;58.40
73322;DHT22;61549;37.044;22.128;2022-08-25T04:04:33;25.60;58.30
73322;DHT22;61549;37.044;22.128;2022-08-25T04:07:00;25.60;58.30
73322;DHT22;61549;37.044;22.128;2022-08-25T04:09:26;25.60;58.70
73322;DHT22;61549;37.044;22.128;2022-08-25T04:11:52;25.60;58.70
73322;DHT22;61549;37.044;22.128;2022-08-25T04:14:19;25.60;58.70
73322;DHT22;61549;37.044;22.128;2022-08-25T04:16:45;25.60;59.10
73322;DHT22;61549;37.044;22.128;2022-08-25T04:19:12;25.60;59.20
73322;DHT22;61549;37.044;22.128;2022-08-25T04:21:39;25.60;59.10
73322;DHT22;61549;37.044;22.128;2022-08-25T04:24:06;25.60;59.10
73322;DHT22;61549;37.044;22.128;2022-08-25T04:26:42;25.60;59.10
73322;DHT22;61549;37.044;22.128;2022-08-25T04:29:10;25.60;59.00
73322;DHT22;61549;37.044;22.128;2022-08-25T04:31:39;25.60;58.80
73322;DHT22;61549;37.044;22.128;2022-08-25T04:34:05;25.60;58.90
73322;DHT22;61549;37.044;22.128;2022-08-25T04:36:32;25.60;59.40
73322;DHT22;61549;37.044;22.128;2022-08-25T04:38:58;25.60;59.70
73322;DHT22;61549;37.044;22.128;2022-08-25T04:41:24;25.60;59.60
73322;DHT22;61549;37.044;22.128;2022-08-25T04:43:51;25.60;60.10
73322;DHT22;61549;37.044;22.128;2022-08-25T04:46:23;25.60;59.60
73322;DHT22;61549;37.044;22.128;2022-08-25T04:48:50;25.50;59.10
73322;DHT22;61549;37.044;22.128;2022-08-25T04:51:21;25.60;59.40
73322;DHT22;61549;37.044;22.128;2022-08-25T04:53:48;25.60;59.60
73322;DHT22;61549;37.044;22.128;2022-08-25T04:56:16;25.60;59.90
73322;DHT22;61549;37.044;22.128;2022-08-25T04:58:43;25.60;60.60
73322;DHT22;61549;37.044;22.128;2022-08-25T05:01:19;25.60;60.40
73322;DHT22;61549;37.044;22.128;2022-08-25T05:03:47;25.70;61.00
73322;DHT22;61549;37.044;22.128;2022-08-25T05:06:13;25.70;61.60
73322;DHT22;61549;37.044;22.128;2022-08-25T05:08:40;25.70;61.80
73322;DHT22;61549;37.044;22.128;2022-08-25T05:11:07;25.80;62.50
73322;DHT22;61549;37.044;22.128;2022-08-25T05:13:33;25.80;62.90
73322;DHT22;61549;37.044;22.128;2022-08-25T05:16:00;25.90;62.80
73322;DHT22;61549;37.044;22.128;2022-08-25T05:18:30;25.90;62.90
73322;DHT22;61549;37.044;22.128;2022-08-25T05:21:04;26.00;62.10
73322;DHT22;61549;37.044;22.128;2022-08-25T05:23:31;26.00;60.20
73322;DHT22;61549;37.044;22.128;2022-08-25T05:26:14;26.10;60.20
73322;DHT22;61549;37.044;22.128;2022-08-25T05:28:41;26.20;59.50
73322;DHT22;61549;37.044;22.128;2022-08-25T05:31:08;26.30;60.70
73322;DHT22;61549;37.044;22.128;2022-08-25T05:33:35;26.40;60.60
73322;DHT22;61549;37.044;22.128;2022-08-25T05:36:02;26.50;58.50
73322;DHT22;61549;37.044;22.128;2022-08-25T05:38:28;26.60;58.50
73322;DHT22;61549;37.044;22.128;2022-08-25T05:41:03;26.70;58.60
73322;DHT22;61549;37.044;22.128;2022-08-25T05:43:30;26.70;57.60
73322;DHT22;61549;37.044;22.128;2022-08-25T05:45:57;26.80;57.00
73322;DHT22;61549;37.044;22.128;2022-08-25T05:48:24;26.90;55.80
73322;DHT22;61549;37.044;22.128;2022-08-25T05:50:56;26.90;55.60
73322;DHT22;61549;37.044;22.128;2022-08-25T05:53:23;27.00;55.60
73322;DHT22;61549;37.044;22.128;2022-08-25T05:55:51;27.00;56.80
73322;DHT22;61549;37.044;22.128;2022-08-25T05:58:17;27.00;56.00
73322;DHT22;61549;37.044;22.128;2022-08-25T06:00:43;27.10;56.60
73322;DHT22;61549;37.044;22.128;2022-08-25T06:03:09;27.00;57.20
73322;DHT22;61549;37.044;22.128;2022-08-25T06:05:35;27.10;57.40
73322;DHT22;61549;37.044;22.128;2022-08-25T06:08:01;27.20;57.80
73322;DHT22;61549;37.044;22.128;2022-08-25T06:10:27;27.30;58.00
73322;DHT22;61549;37.044;22.128;2022-08-25T06:12:53;27.30;57.00
73322;DHT22;61549;37.044;22.128;2022-08-25T06:15:21;27.40;57.70
73322;DHT22;61549;37.044;22.128;2022-08-25T06:17:49;27.30;57.10
73322;DHT22;61549;37.044;22.128;2022-08-25T06:20:20;27.40;57.10
73322;DHT22;61549;37.044;22.128;2022-08-25T06:22:50;27.50;56.70
73322;DHT22;61549;37.044;22.128;2022-08-25T06:25:19;27.60;56.60
73322;DHT22;61549;37.044;22.128;2022-08-25T06:27:46;27.70;56.50
73322;DHT22;61549;37.044;22.128;2022-08-25T06:30:14;27.80;56.30
73322;DHT22;61549;37.044;22.128;2022-08-25T06:32:42;28.00;56.00
73322;DHT22;61549;37.044;22.128;2022-08-25T06:35:11;28.30;54.00
73322;DHT22;61549;37.044;22.128;2022-08-25T06:37:37;28.40;53.50
73322;DHT22;61549;37.044;22.128;2022-08-25T06:40:05;28.50;53.50
73322;DHT22;61549;37.044;22.128;2022-08-25T06:42:32;28.70;52.30
73322;DHT22;61549;37.044;22.128;2022-08-25T06:44:58;28.90;51.80
73322;DHT22;61549;37.044;22.128;2022-08-25T06:47:23;29.00;51.60
73322;DHT22;61549;37.044;22.128;2022-08-25T06:49:49;29.10;51.50
73322;DHT22;61549;37.044;22.128;2022-08-25T06:52:15;29.30;51.40
73322;DHT22;61549;37.044;22.128;2022-08-25T06:54:41;29.50;51.50
73322;DHT22;61549;37.044;22.128;2022-08-25T06:57:07;29.70;52.70
73322;DHT22;61549;37.044;22.128;2022-08-25T06:59:34;29.90;51.40
73322;DHT22;61549;37.044;22.128;2022-08-25T07:02:01;30.00;51.00
73322;DHT22;61549;37.044;22.128;2022-08-25T07:04:28;30.20;50.80
73322;DHT22;61549;37.044;22.128;2022-08-25T07:06:55;30.40;51.20
73322;DHT22;61549;37.044;22.128;2022-08-25T07:09:20;30.50;49.90
73322;DHT22;61549;37.044;22.128;2022-08-25T07:11:46;30.60;49.30
73322;DHT22;61549;37.044;22.128;2022-08-25T07:14:15;30.70;48.90
73322;DHT22;61549;37.044;22.128;2022-08-25T07:16:42;30.80;48.00
73322;DHT22;61549;37.044;22.128;2022-08-25T07:19:09;30.80;48.00
73322;DHT22;61549;37.044;22.128;2022-08-25T07:21:37;30.70;48.40
73322;DHT22;61549;37.044;22.128;2022-08-25T07:24:11;30.70;48.00
73322;DHT22;61549;37.044;22.128;2022-08-25T07:26:39;30.70;48.00
73322;DHT22;61549;37.044;22.128;2022-08-25T07:29:12;30.60;48.40
73322;DHT22;61549;37.044;22.128;2022-08-25T07:31:39;30.50;48.60
73322;DHT22;61549;37.044;22.128;2022-08-25T07:34:06;30.50;49.00
73322;DHT22;61549;37.044;22.128;2022-08-25T07:36:50;30.40;50.00
73322;DHT22;61549;37.044;22.128;2022-08-25T07:39:16;30.20;50.40
73322;DHT22;61549;37.044;22.128;2022-08-25T07:41:42;29.90;51.00
73322;DHT22;61549;37.044;22.128;2022-08-25T07:44:09;29.70;52.10
73322;DHT22;61549;37.044;22.128;2022-08-25T07:46:37;29.50;52.30
73322;DHT22;61549;37.044;22.128;2022-08-25T07:49:03;29.30;52.70
73322;DHT22;61549;37.044;22.128;2022-08-25T07:51:29;29.10;52.70
73322;DHT22;61549;37.044;22.128;2022-08-25T07:53:55;29.10;53.00
73322;DHT22;61549;37.044;22.128;2022-08-25T07:56:21;29.00;53.40
73322;DHT22;61549;37.044;22.128;2022-08-25T07:58:47;29.00;53.20
73322;DHT22;61549;37.044;22.128;2022-08-25T08:01:14;28.90;52.70
73322;DHT22;61549;37.044;22.128;2022-08-25T08:03:41;28.80;53.10
73322;DHT22;61549;37.044;22.128;2022-08-25T08:06:09;28.80;53.50
73322;DHT22;61549;37.044;22.128;2022-08-25T08:08:37;28.70;53.70
73322;DHT22;61549;37.044;22.128;2022-08-25T08:11:04;28.70;53.80
73322;DHT22;61549;37.044;22.128;2022-08-25T08:13:31;28.70;53.90
73322;DHT22;61549;37.044;22.128;2022-08-25T08:15:57;28.70;53.10
73322;DHT22;61549;37.044;22.128;2022-08-25T08:18:23;28.70;53.30
73322;DHT22;61549;37.044;22.128;2022-08-25T08:20:48;28.70;53.60
73322;DHT22;61549;37.044;22.128;2022-08-25T08:23:15;28.80;54.00
73322;DHT22;61549;37.044;22.128;2022-08-25T08:25:41;28.80;54.00
73322;DHT22;61549;37.044;22.128;2022-08-25T08:28:07;28.80;54.20
73322;DHT22;61549;37.044;22.128;2022-08-25T08:30:34;28.70;54.10
73322;DHT22;61549;37.044;22.128;2022-08-25T08:33:01;28.60;54.70
73322;DHT22;61549;37.044;22.128;2022-08-25T08:35:27;28.60;54.50
73322;DHT22;61549;37.044;22.128;2022-08-25T08:37:53;28.60;54.50
73322;DHT22;61549;37.044;22.128;2022-08-25T08:40:19;28.70;54.60
73322;DHT22;61549;37.044;22.128;2022-08-25T08:43:05;28.60;54.30
73322;DHT22;61549;37.044;22.128;2022-08-25T08:45:49;28.80;55.70
73322;DHT22;61549;37.044;22.128;2022-08-25T08:51:11;29.00;54.00
73322;DHT22;61549;37.044;22.128;2022-08-25T08:56:40;29.10;52.80
73322;DHT22;61549;37.044;22.128;2022-08-25T08:59:15;29.00;52.10
73322;DHT22;61549;37.044;22.128;2022-08-25T09:01:53;28.90;52.20
73322;DHT22;61549;37.044;22.128;2022-08-25T09:07:05;29.00;52.10
73322;DHT22;61549;37.044;22.128;2022-08-25T09:09:36;29.00;52.50
73322;DHT22;61549;37.044;22.128;2022-08-25T09:12:12;29.10;52.00
73322;DHT22;61549;37.044;22.128;2022-08-25T09:14:50;29.00;52.10
73322;DHT22;61549;37.044;22.128;2022-08-25T09:20:23;29.20;51.50
73322;DHT22;61549;37.044;22.128;2022-08-25T09:26:00;29.30;51.00
73322;DHT22;61549;37.044;22.128;2022-08-25T09:28:47;29.40;50.80
73322;DHT22;61549;37.044;22.128;2022-08-25T09:31:26;29.40;51.00
73322;DHT22;61549;37.044;22.128;2022-08-25T09:33:59;29.30;51.10
73322;DHT22;61549;37.044;22.128;2022-08-25T09:36:25;29.30;51.80
73322;DHT22;61549;37.044;22.128;2022-08-25T09:38:51;29.30;52.20
73322;DHT22;61549;37.044;22.128;2022-08-25T09:45:01;29.30;52.90
73322;DHT22;61549;37.044;22.128;2022-08-25T09:49:57;29.20;53.20
73322;DHT22;61549;37.044;22.128;2022-08-25T09:52:33;29.30;53.80
73322;DHT22;61549;37.044;22.128;2022-08-25T10:00:17;29.50;53.70
73322;DHT22;61549;37.044;22.128;2022-08-25T10:03:02;29.50;54.00
73322;DHT22;61549;37.044;22.128;2022-08-25T10:05:28;29.30;54.00
73322;DHT22;61549;37.044;22.128;2022-08-25T10:08:02;29.40;54.60
73322;DHT22;61549;37.044;22.128;2022-08-25T10:10:33;29.50;54.50
73322;DHT22;61549;37.044;22.128;2022-08-25T10:13:00;29.60;54.60
73322;DHT22;61549;37.044;22.128;2022-08-25T10:15:33;29.60;53.00
73322;DHT22;61549;37.044;22.128;2022-08-25T10:18:25;29.70;52.90
73322;DHT22;61549;37.044;22.128;2022-08-25T10:21:12;29.80;52.60
73322;DHT22;61549;37.044;22.128;2022-08-25T10:23:48;30.00;52.50
73322;DHT22;61549;37.044;22.128;2022-08-25T10:26:27;30.00;51.60
73322;DHT22;61549;37.044;22.128;2022-08-25T10:31:56;30.20;51.90
73322;DHT22;61549;37.044;22.128;2022-08-25T10:40:20;30.20;53.50
73322;DHT22;61549;37.044;22.128;2022-08-25T10:43:02;30.30;53.80
73322;DHT22;61549;37.044;22.128;2022-08-25T10:45:37;30.40;52.30
73322;DHT22;61549;37.044;22.128;2022-08-25T10:57:25;30.00;55.10
73322;DHT22;61549;37.044;22.128;2022-08-25T11:00:02;30.20;55.10
73322;DHT22;61549;37.044;22.128;2022-08-25T11:08:31;30.40;53.70
73322;DHT22;61549;37.044;22.128;2022-08-25T11:11:30;30.40;51.10
73322;DHT22;61549;37.044;22.128;2022-08-25T11:14:09;30.60;52.10
73322;DHT22;61549;37.044;22.128;2022-08-25T11:16:47;30.80;52.50
73322;DHT22;61549;37.044;22.128;2022-08-25T11:19:23;30.90;50.60
73322;DHT22;61549;37.044;22.128;2022-08-25T11:27:37;31.10;48.80
73322;DHT22;61549;37.044;22.128;2022-08-25T11:30:09;31.10;49.50
73322;DHT22;61549;37.044;22.128;2022-08-25T11:32:37;31.10;51.60
73322;DHT22;61549;37.044;22.128;2022-08-25T11:35:07;31.00;49.90
73322;DHT22;61549;37.044;22.128;2022-08-25T11:37:41;30.90;50.70
73322;DHT22;61549;37.044;22.128;2022-08-25T11:40:21;30.90;54.00
73322;DHT22;61549;37.044;22.128;2022-08-25T11:43:13;30.60;54.60
73322;DHT22;61549;37.044;22.128;2022-08-25T11:51:39;29.90;57.20
73322;DHT22;61549;37.044;22.128;2022-08-25T11:57:04;30.00;58.10
73322;DHT22;61549;37.044;22.128;2022-08-25T12:00:08;30.10;58.40
73322;DHT22;61549;37.044;22.128;2022-08-25T12:02:47;30.20;58.40
73322;DHT22;61549;37.044;22.128;2022-08-25T12:13:39;30.60;55.10
73322;DHT22;61549;37.044;22.128;2022-08-25T12:16:06;30.60;53.50
73322;DHT22;61549;37.044;22.128;2022-08-25T12:18:40;30.50;54.50
73322;DHT22;61549;37.044;22.128;2022-08-25T12:21:12;30.40;56.50
73322;DHT22;61549;37.044;22.128;2022-08-25T12:23:43;30.20;57.00
73322;DHT22;61549;37.044;22.128;2022-08-25T12:26:22;30.40;56.90
73322;DHT22;61549;37.044;22.128;2022-08-25T12:37:20;30.60;54.70
73322;DHT22;61549;37.044;22.128;2022-08-25T12:39:56;30.80;54.00
73322;DHT22;61549;37.044;22.128;2022-08-25T12:42:35;30.90;53.20
73322;DHT22;61549;37.044;22.128;2022-08-25T12:47:52;30.70;52.60
73322;DHT22;61549;37.044;22.128;2022-08-25T12:50:43;30.70;52.30
73322;DHT22;61549;37.044;22.128;2022-08-25T12:53:34;30.90;52.70
73322;DHT22;61549;37.044;22.128;2022-08-25T12:56:36;30.90;50.40
73322;DHT22;61549;37.044;22.128;2022-08-25T13:01:54;31.30;50.70
73322;DHT22;61549;37.044;22.128;2022-08-25T13:07:28;31.50;49.40
73322;DHT22;61549;37.044;22.128;2022-08-25T13:10:17;31.70;49.20
73322;DHT22;61549;37.044;22.128;2022-08-25T13:15:14;31.80;47.60
73322;DHT22;61549;37.044;22.128;2022-08-25T13:17:40;31.90;47.10
73322;DHT22;61549;37.044;22.128;2022-08-25T13:22:46;32.10;46.10
73322;DHT22;61549;37.044;22.128;2022-08-25T13:25:19;32.20;45.00
73322;DHT22;61549;37.044;22.128;2022-08-25T13:27:58;32.40;45.00
73322;DHT22;61549;37.044;22.128;2022-08-25T13:30:30;32.50;44.80
73322;DHT22;61549;37.044;22.128;2022-08-25T13:32:57;32.60;44.50
73322;DHT22;61549;37.044;22.128;2022-08-25T13:35:27;32.70;44.00
73322;DHT22;61549;37.044;22.128;2022-08-25T13:37:53;32.70;41.90
73322;DHT22;61549;37.044;22.128;2022-08-25T13:40:39;32.60;41.70
73322;DHT22;61549;37.044;22.128;2022-08-25T13:43:08;32.40;42.30
73322;DHT22;61549;37.044;22.128;2022-08-25T13:45:38;32.40;45.70
73322;DHT22;61549;37.044;22.128;2022-08-25T13:48:09;32.30;48.20
73322;DHT22;61549;37.044;22.128;2022-08-25T13:50:37;32.10;49.10
73322;DHT22;61549;37.044;22.128;2022-08-25T13:53:26;31.90;49.90
73322;DHT22;61549;37.044;22.128;2022-08-25T13:55:59;31.70;49.30
73322;DHT22;61549;37.044;22.128;2022-08-25T13:58:33;31.50;51.20
73322;DHT22;61549;37.044;22.128;2022-08-25T14:01:07;31.50;50.90
73322;DHT22;61549;37.044;22.128;2022-08-25T14:03:37;31.60;49.10
73322;DHT22;61549;37.044;22.128;2022-08-25T14:08:44;31.60;50.60
73322;DHT22;61549;37.044;22.128;2022-08-25T14:14:04;31.60;48.90
73322;DHT22;61549;37.044;22.128;2022-08-25T14:16:47;31.40;50.20
73322;DHT22;61549;37.044;22.128;2022-08-25T14:19:16;31.30;50.00
73322;DHT22;61549;37.044;22.128;2022-08-25T14:21:42;31.30;49.60
73322;DHT22;61549;37.044;22.128;2022-08-25T14:24:09;31.00;49.90
73322;DHT22;61549;37.044;22.128;2022-08-25T14:26:39;30.90;50.70
73322;DHT22;61549;37.044;22.128;2022-08-25T14:29:05;30.70;52.40
73322;DHT22;61549;37.044;22.128;2022-08-25T14:31:34;30.70;52.00
73322;DHT22;61549;37.044;22.128;2022-08-25T14:34:11;30.50;51.70
73322;DHT22;61549;37.044;22.128;2022-08-25T14:36:38;30.20;53.20
73322;DHT22;61549;37.044;22.128;2022-08-25T14:39:04;30.10;52.10
73322;DHT22;61549;37.044;22.128;2022-08-25T14:41:32;30.00;52.20
73322;DHT22;61549;37.044;22.128;2022-08-25T14:44:00;30.10;52.10
73322;DHT22;61549;37.044;22.128;2022-08-25T14:46:28;30.20;51.10
73322;DHT22;61549;37.044;22.128;2022-08-25T14:48:59;30.30;51.70
73322;DHT22;61549;37.044;22.128;2022-08-25T14:51:27;30.20;51.90
73322;DHT22;61549;37.044;22.128;2022-08-25T14:53:56;30.10;52.20
73322;DHT22;61549;37.044;22.128;2022-08-25T14:56:23;30.00;52.70
73322;DHT22;61549;37.044;22.128;2022-08-25T14:58:49;29.90;54.50
73322;DHT22;61549;37.044;22.128;2022-08-25T15:01:17;29.80;54.20
73322;DHT22;61549;37.044;22.128;2022-08-25T15:03:45;29.80;53.30
73322;DHT22;61549;37.044;22.128;2022-08-25T15:06:14;29.90;53.40
73322;DHT22;61549;37.044;22.128;2022-08-25T15:08:40;30.00;52.80
73322;DHT22;61549;37.044;22.128;2022-08-25T15:11:32;30.10;51.90
73322;DHT22;61549;37.044;22.128;2022-08-25T15:13:58;30.20;52.20
73322;DHT22;61549;37.044;22.128;2022-08-25T15:16:27;30.30;52.30
73322;DHT22;61549;37.044;22.128;2022-08-25T15:18:55;30.30;53.00
73322;DHT22;61549;37.044;22.128;2022-08-25T15:21:21;30.30;53.90
73322;DHT22;61549;37.044;22.128;2022-08-25T15:23:47;30.40;54.70
73322;DHT22;61549;37.044;22.128;2022-08-25T15:26:14;30.30;55.30
73322;DHT22;61549;37.044;22.128;2022-08-25T15:28:45;30.20;54.50
73322;DHT22;61549;37.044;22.128;2022-08-25T15:31:14;30.10;55.10
73322;DHT22;61549;37.044;22.128;2022-08-25T15:33:40;30.00;55.70
73322;DHT22;61549;37.044;22.128;2022-08-25T15:36:08;30.00;55.90
73322;DHT22;61549;37.044;22.128;2022-08-25T15:38:36;30.00;55.90
73322;DHT22;61549;37.044;22.128;2022-08-25T15:41:03;30.10;55.30
73322;DHT22;61549;37.044;22.128;2022-08-25T15:43:29;30.10;55.30
73322;DHT22;61549;37.044;22.128;2022-08-25T15:45:55;30.10;55.30
73322;DHT22;61549;37.044;22.128;2022-08-25T15:48:22;30.10;55.00
73322;DHT22;61549;37.044;22.128;2022-08-25T15:50:53;30.10;54.50
73322;DHT22;61549;37.044;22.128;2022-08-25T15:53:20;30.20;53.30
73322;DHT22;61549;37.044;22.128;2022-08-25T15:55:48;30.20;50.60
73322;DHT22;61549;37.044;22.128;2022-08-25T15:58:15;30.20;48.80
73322;DHT22;61549;37.044;22.128;2022-08-25T16:00:42;30.20;47.30
73322;DHT22;61549;37.044;22.128;2022-08-25T16:03:09;30.20;47.20
73322;DHT22;61549;37.044;22.128;2022-08-25T16:05:36;30.10;47.20
73322;DHT22;61549;37.044;22.128;2022-08-25T16:08:02;30.10;46.90
73322;DHT22;61549;37.044;22.128;2022-08-25T16:10:35;30.10;47.00
73322;DHT22;61549;37.044;22.128;2022-08-25T16:13:02;30.10;47.50
73322;DHT22;61549;37.044;22.128;2022-08-25T16:15:29;30.00;47.60
73322;DHT22;61549;37.044;22.128;2022-08-25T16:17:59;30.10;47.80
73322;DHT22;61549;37.044;22.128;2022-08-25T16:20:26;30.00;48.00
73322;DHT22;61549;37.044;22.128;2022-08-25T16:22:52;30.00;48.50
73322;DHT22;61549;37.044;22.128;2022-08-25T16:25:18;30.00;53.20
73322;DHT22;61549;37.044;22.128;2022-08-25T16:27:48;30.00;56.80
73322;DHT22;61549;37.044;22.128;2022-08-25T16:30:14;29.90;58.50
73322;DHT22;61549;37.044;22.128;2022-08-25T16:32:41;29.70;60.10
73322;DHT22;61549;37.044;22.128;2022-08-25T16:35:07;29.50;61.00
73322;DHT22;61549;37.044;22.128;2022-08-25T16:37:34;29.40;61.50
73322;DHT22;61549;37.044;22.128;2022-08-25T16:40:01;29.20;62.40
73322;DHT22;61549;37.044;22.128;2022-08-25T16:42:27;29.00;62.80
73322;DHT22;61549;37.044;22.128;2022-08-25T16:44:53;28.90;63.50
73322;DHT22;61549;37.044;22.128;2022-08-25T16:47:20;28.80;64.20
73322;DHT22;61549;37.044;22.128;2022-08-25T16:49:46;28.70;64.00
73322;DHT22;61549;37.044;22.128;2022-08-25T16:52:14;28.60;64.30
73322;DHT22;61549;37.044;22.128;2022-08-25T16:55:09;28.50;64.90
73322;DHT22;61549;37.044;22.128;2022-08-25T16:57:39;28.40;65.20
73322;DHT22;61549;37.044;22.128;2022-08-25T17:00:08;28.30;65.00
73322;DHT22;61549;37.044;22.128;2022-08-25T17:02:39;28.30;64.20
73322;DHT22;61549;37.044;22.128;2022-08-25T17:05:06;28.30;64.30
73322;DHT22;61549;37.044;22.128;2022-08-25T17:07:33;28.20;63.70
73322;DHT22;61549;37.044;22.128;2022-08-25T17:09:59;28.10;63.90
73322;DHT22;61549;37.044;22.128;2022-08-25T17:12:26;28.10;63.70